Time;durP1;ratioP1;P1;durP2;ratioP2;P2;SDS_P1;SDS_P2;PMS_P1;PMS_P2;Temp;Humidity;BMP_temperature;BMP_pressure;BME280_temperature;BME280_humidity;BME280_pressure;Samples;Min_cycle;Max_cycle;Signal;HPM_P1;HPM_P2
2022/11/17 00:02:00;;;;;;;24.42;15.30;;;7.90;99.90;;;;;;5038790;28;20103;-83
2022/11/17 00:04:29;;;;;;;28.52;15.35;;;7.90;99.90;;;;;;5054640;28;20048;-83
2022/11/17 00:06:58;;;;;;;26.05;14.40;;;7.90;99.90;;;;;;5038623;28;20497;-81
2022/11/17 00:09:24;;;;;;;24.55;13.82;;;7.90;99.90;;;;;;5038981;28;20049;-81
2022/11/17 00:14:39;;;;;;;21.23;11.75;;;7.90;99.90;;;;;;5058995;28;20071;-84
2022/11/17 00:17:12;;;;;;;18.77;12.00;;;8.00;99.90;;;;;;5041046;28;20049;-78
2022/11/17 00:22:24;;;;;;;20.20;11.85;;;7.90;99.90;;;;;;5055346;28;20088;-81
2022/11/17 00:24:50;;;;;;;20.88;12.35;;;7.90;99.90;;;;;;5055846;28;20092;-80
2022/11/17 00:27:16;;;;;;;21.05;11.75;;;7.90;99.90;;;;;;5057428;28;20045;-86
2022/11/17 00:29:42;;;;;;;19.85;12.07;;;7.90;99.90;;;;;;5040001;28;20048;-84
2022/11/17 00:35:02;;;;;;;19.55;12.05;;;7.90;99.90;;;;;;5036368;28;20049;-79
2022/11/17 00:37:32;;;;;;;16.83;10.15;;;7.90;99.90;;;;;;5037730;28;20053;-83
2022/11/17 00:39:58;;;;;;;20.70;11.07;;;7.90;99.90;;;;;;5055046;28;20056;-86
2022/11/17 00:42:24;;;;;;;15.30;9.75;;;7.90;99.90;;;;;;5036850;28;20057;-81
2022/11/17 00:44:50;;;;;;;17.85;11.75;;;7.90;99.90;;;;;;5055471;28;20081;-82
2022/11/17 00:47:16;;;;;;;19.88;11.95;;;8.00;99.90;;;;;;5035686;28;20081;-80
2022/11/17 00:49:42;;;;;;;16.33;11.20;;;7.90;99.90;;;;;;5053288;28;20049;-84
2022/11/17 00:52:09;;;;;;;15.00;10.80;;;8.00;99.90;;;;;;5053410;28;20091;-83
2022/11/17 00:54:35;;;;;;;18.38;13.27;;;8.00;99.90;;;;;;5036232;28;20468;-82
2022/11/17 00:57:01;;;;;;;17.90;11.70;;;8.00;99.90;;;;;;5055026;28;20059;-80
2022/11/17 00:59:28;;;;;;;20.85;12.43;;;7.90;99.90;;;;;;5037858;28;20049;-83
2022/11/17 01:01:53;;;;;;;18.77;12.75;;;7.90;99.90;;;;;;5035483;28;20072;-84
2022/11/17 01:04:19;;;;;;;17.83;11.98;;;7.90;99.90;;;;;;5034923;28;20049;-83
2022/11/17 01:06:48;;;;;;;17.23;10.43;;;7.90;99.90;;;;;;5035229;28;20075;-84
2022/11/17 01:09:19;;;;;;;20.40;12.13;;;7.80;99.90;;;;;;5053065;28;20536;-82
2022/11/17 01:11:46;;;;;;;17.10;11.23;;;7.80;99.90;;;;;;5034972;28;20057;-86
2022/11/17 01:14:19;;;;;;;19.95;12.15;;;7.80;99.90;;;;;;5035133;28;20111;-80
2022/11/17 01:16:45;;;;;;;19.58;12.20;;;7.80;99.90;;;;;;5035780;28;20049;-87
2022/11/17 01:19:15;;;;;;;20.02;11.65;;;7.80;99.90;;;;;;5018539;28;20113;-85
2022/11/17 01:21:41;;;;;;;16.30;10.15;;;7.70;99.90;;;;;;5034373;28;20068;-83
2022/11/17 01:24:10;;;;;;;19.27;11.35;;;7.70;99.90;;;;;;5034862;28;20107;-83
2022/11/17 01:26:37;;;;;;;17.05;11.27;;;7.70;99.90;;;;;;5034882;28;20139;-81
2022/11/17 01:29:06;;;;;;;17.30;11.35;;;7.70;99.90;;;;;;5035374;28;20041;-86
2022/11/17 01:31:37;;;;;;;17.02;12.30;;;7.70;99.90;;;;;;5054261;28;20107;-82
2022/11/17 01:34:04;;;;;;;19.98;11.80;;;7.70;99.90;;;;;;5018425;28;20079;-86
2022/11/17 01:39:23;;;;;;;15.90;10.27;;;7.60;99.90;;;;;;5052816;28;20112;-81
2022/11/17 01:41:49;;;;;;;17.60;11.00;;;7.60;99.90;;;;;;5052451;28;20105;-82
2022/11/17 01:44:34;;;;;;;16.98;9.95;;;7.60;99.90;;;;;;5052081;28;20049;-83
2022/11/17 01:47:05;;;;;;;19.77;10.95;;;7.60;99.90;;;;;;5053058;28;20084;-80
2022/11/17 01:49:32;;;;;;;15.50;10.43;;;7.60;99.90;;;;;;5035092;28;20088;-84
2022/11/17 01:52:05;;;;;;;16.58;10.88;;;7.50;99.90;;;;;;5052265;28;20064;-81
2022/11/17 01:54:34;;;;;;;23.23;11.25;;;7.50;99.90;;;;;;5051953;28;20056;-84
2022/11/17 01:57:11;;;;;;;14.68;10.43;;;7.60;99.90;;;;;;5052156;28;20111;-81
2022/11/17 01:59:42;;;;;;;14.32;10.35;;;7.50;99.90;;;;;;5052317;28;20056;-84
2022/11/17 02:02:08;;;;;;;15.75;10.57;;;7.50;99.90;;;;;;5052396;28;20052;-84
2022/11/17 02:04:36;;;;;;;14.95;10.93;;;7.50;99.90;;;;;;5034635;28;20106;-81
2022/11/17 02:07:13;;;;;;;15.85;10.75;;;7.50;99.90;;;;;;5052129;28;20049;-81
2022/11/17 02:09:39;;;;;;;17.10;11.32;;;7.50;99.90;;;;;;5034388;28;20460;-83
2022/11/17 02:12:09;;;;;;;14.32;9.85;;;7.50;99.90;;;;;;5033524;28;20056;-85
2022/11/17 02:14:35;;;;;;;18.33;10.10;;;7.50;99.90;;;;;;5033860;28;20084;-81
2022/11/17 02:17:02;;;;;;;13.77;9.80;;;7.50;99.90;;;;;;5034662;28;20060;-85
2022/11/17 02:19:37;;;;;;;18.08;10.77;;;7.50;99.90;;;;;;5051372;28;20049;-80
2022/11/17 02:22:33;;;;;;;17.33;11.10;;;7.50;99.90;;;;;;5051026;28;20505;-78
2022/11/17 02:25:24;;;;;;;13.95;9.43;;;7.50;99.90;;;;;;5033652;28;20053;-85
2022/11/17 02:28:23;;;;;;;18.27;10.40;;;7.50;99.90;;;;;;5033671;28;20457;-84
2022/11/17 02:31:14;;;;;;;19.88;9.63;;;7.40;99.90;;;;;;5051299;28;20056;-79
2022/11/17 02:33:59;;;;;;;13.95;10.15;;;7.40;99.90;;;;;;5035150;28;20087;-81
2022/11/17 02:37:03;;;;;;;14.52;10.23;;;7.50;99.90;;;;;;5051890;28;20057;-87
2022/11/17 02:39:42;;;;;;;19.42;9.95;;;7.50;99.90;;;;;;5052399;28;20127;-82
2022/11/17 02:42:15;;;;;;;16.92;10.02;;;7.50;99.90;;;;;;5033976;28;20528;-85
2022/11/17 02:44:55;;;;;;;15.35;9.80;;;7.50;99.90;;;;;;5033247;28;20056;-80
2022/11/17 02:47:28;;;;;;;17.17;10.18;;;7.50;99.90;;;;;;5034730;28;20041;-84
2022/11/17 02:50:05;;;;;;;12.85;9.45;;;7.50;99.90;;;;;;5051798;28;20555;-80
2022/11/17 02:52:31;;;;;;;16.98;10.73;;;7.50;99.90;;;;;;5051869;28;20045;-85
2022/11/17 02:55:01;;;;;;;22.42;12.63;;;7.50;99.90;;;;;;5033599;28;20048;-85
2022/11/17 02:57:35;;;;;;;18.48;11.95;;;7.50;99.90;;;;;;5051120;28;20053;-84
2022/11/17 03:00:05;;;;;;;16.90;12.23;;;7.40;99.90;;;;;;5033187;28;20128;-84
2022/11/17 03:02:49;;;;;;;17.50;11.55;;;7.40;99.90;;;;;;5051212;28;20049;-80
2022/11/17 03:05:41;;;;;;;21.17;12.48;;;7.40;99.90;;;;;;5052428;28;20049;-82
2022/11/17 03:08:13;;;;;;;17.67;12.90;;;7.40;99.90;;;;;;5034379;28;20128;-81
2022/11/17 03:10:45;;;;;;;19.02;11.52;;;7.40;99.90;;;;;;5016833;28;20106;-80
2022/11/17 03:13:24;;;;;;;17.50;12.00;;;7.40;99.90;;;;;;5033925;28;20044;-82
2022/11/17 03:16:07;;;;;;;15.77;11.57;;;7.40;99.90;;;;;;5033954;28;20053;-81
2022/11/17 03:18:42;;;;;;;17.95;12.30;;;7.40;99.90;;;;;;5052373;28;20517;-80
2022/11/17 03:21:11;;;;;;;;;;;7.30;99.90;;;;;;5053592;28;20408;-80
2022/11/17 03:23:48;;;;;;;16.65;11.85;;;7.30;99.90;;;;;;5050931;28;19928;-80
2022/11/17 03:26:23;;;;;;;16.08;11.93;;;7.30;99.90;;;;;;5032787;28;20087;-81
2022/11/17 03:28:51;;;;;;;18.10;12.40;;;7.30;99.90;;;;;;5050708;28;20052;-80
2022/11/17 03:31:19;;;;;;;21.55;12.90;;;7.30;99.90;;;;;;5033046;28;20110;-81
2022/11/17 03:33:48;;;;;;;21.65;13.30;;;7.30;99.90;;;;;;5051778;28;20540;-80
2022/11/17 03:36:25;;;;;;;18.15;12.02;;;7.30;99.90;;;;;;5052831;28;20154;-80
2022/11/17 03:39:14;;;;;;;16.63;12.25;;;7.30;99.90;;;;;;5033011;28;20044;-81
2022/11/17 03:41:44;;;;;;;17.55;12.90;;;7.30;99.90;;;;;;5050385;28;20136;-80
2022/11/17 03:44:12;;;;;;;20.33;13.65;;;7.30;99.90;;;;;;5051148;28;20374;-78
2022/11/17 03:46:42;;;;;;;23.13;13.63;;;7.20;99.90;;;;;;5032683;28;20065;-83
2022/11/17 03:49:22;;;;;;;18.55;12.55;;;7.20;99.90;;;;;;5032775;28;20106;-81
2022/11/17 03:51:49;;;;;;;19.85;13.40;;;7.20;99.90;;;;;;5032886;28;20067;-83
2022/11/17 03:54:15;;;;;;;16.50;12.57;;;7.20;99.90;;;;;;5051188;28;20045;-78
2022/11/17 03:57:13;;;;;;;20.67;13.27;;;7.20;99.90;;;;;;5050223;28;20053;-81
2022/11/17 03:59:46;;;;;;;20.85;13.60;;;7.20;99.90;;;;;;5016088;28;20088;-81
2022/11/17 04:02:22;;;;;;;21.38;14.13;;;7.20;99.90;;;;;;5050084;28;20103;-80
2022/11/17 04:05:07;;;;;;;18.55;13.55;;;7.10;99.90;;;;;;5032585;28;20060;-80
2022/11/17 04:07:41;;;;;;;17.42;12.40;;;7.10;99.90;;;;;;5032879;28;20049;-79
2022/11/17 04:10:15;;;;;;;22.70;12.60;;;7.10;99.90;;;;;;5050652;28;20140;-83
2022/11/17 04:18:11;;;;;;;17.10;12.00;;;7.00;99.90;;;;;;5050594;28;20284;-82
2022/11/17 04:20:37;;;;;;;18.25;12.80;;;7.00;99.90;;;;;;5015509;28;20053;-78
2022/11/17 04:23:10;;;;;;;16.80;12.30;;;7.00;99.90;;;;;;5050323;28;20045;-84
2022/11/17 04:28:37;;;;;;;19.95;13.07;;;7.00;99.90;;;;;;5035874;28;20075;-82
2022/11/17 04:31:07;;;;;;;18.48;13.18;;;7.00;99.90;;;;;;5035681;28;20580;-82
2022/11/17 04:33:33;;;;;;;20.15;12.73;;;6.90;99.90;;;;;;5053744;28;20091;-82
2022/11/17 04:35:59;;;;;;;19.27;13.50;;;7.00;99.90;;;;;;5053374;28;20049;-77
2022/11/17 04:38:26;;;;;;;16.98;12.30;;;6.90;99.90;;;;;;5053662;28;20051;-79
2022/11/17 04:43:40;;;;;;;18.63;11.85;;;6.90;99.90;;;;;;5053398;28;20051;-79
2022/11/17 04:46:06;;;;;;;17.48;12.90;;;6.90;99.90;;;;;;5053901;28;20449;-80
2022/11/17 04:48:32;;;;;;;15.40;12.00;;;6.80;99.90;;;;;;5053599;28;20123;-81
2022/11/17 04:50:57;;;;;;;17.98;12.98;;;6.90;99.90;;;;;;5035429;28;20096;-80
2022/11/17 04:53:24;;;;;;;18.88;13.13;;;6.90;99.90;;;;;;5053464;28;20048;-82
2022/11/17 04:55:50;;;;;;;18.75;12.80;;;6.80;99.90;;;;;;5035482;28;20049;-81
2022/11/17 04:58:16;;;;;;;17.92;12.95;;;6.80;99.90;;;;;;5035325;28;20080;-83
2022/11/17 05:00:42;;;;;;;20.35;14.25;;;6.80;99.90;;;;;;5035557;28;20132;-79
2022/11/17 05:03:08;;;;;;;17.52;13.02;;;6.80;99.90;;;;;;5053085;28;20567;-77
2022/11/17 05:05:34;;;;;;;17.98;13.75;;;6.80;99.90;;;;;;5053033;28;20049;-80
2022/11/17 05:08:00;;;;;;;20.13;12.73;;;6.80;99.90;;;;;;5035188;28;20397;-79
2022/11/17 05:13:20;;;;;;;20.75;13.73;;;6.70;99.90;;;;;;5034776;28;20040;-77
2022/11/17 05:18:31;;;;;;;;;;;6.70;99.90;;;;;;5035377;28;20052;-78
2022/11/17 05:21:02;;;;;;;16.70;12.80;;;6.70;99.90;;;;;;5034371;28;19925;-78
2022/11/17 05:26:12;;;;;;;17.47;12.40;;;6.70;99.90;;;;;;5037681;28;20110;-78
2022/11/17 05:28:38;;;;;;;17.23;12.07;;;6.70;99.90;;;;;;5018177;28;20139;-81
2022/11/17 05:31:04;;;;;;;15.52;11.15;;;6.70;99.90;;;;;;5052383;28;20523;-80
2022/11/17 05:33:30;;;;;;;17.45;12.13;;;6.60;99.90;;;;;;5052447;28;20048;-82
2022/11/17 05:35:56;;;;;;;18.25;13.15;;;6.60;99.90;;;;;;5034601;28;20048;-82
2022/11/17 05:38:22;;;;;;;17.95;13.20;;;6.60;99.90;;;;;;5033197;28;20057;-77
2022/11/17 05:40:48;;;;;;;17.50;12.77;;;6.60;99.90;;;;;;5034466;28;20072;-79
2022/11/17 05:43:13;;;;;;;16.67;12.77;;;6.60;99.90;;;;;;5052245;28;20073;-78
2022/11/17 05:45:39;;;;;;;15.48;10.85;;;6.60;99.90;;;;;;5052563;28;20053;-79
2022/11/17 05:48:05;;;;;;;16.58;11.70;;;6.60;99.90;;;;;;5052205;28;20041;-82
2022/11/17 05:50:31;;;;;;;16.35;11.45;;;6.50;99.90;;;;;;5034495;28;20144;-78
2022/11/17 05:52:58;;;;;;;15.05;11.15;;;6.50;99.90;;;;;;5033900;28;20127;-82
2022/11/17 05:55:24;;;;;;;14.48;11.25;;;6.50;99.90;;;;;;5052391;28;20056;-78
2022/11/17 05:57:51;;;;;;;15.80;11.20;;;6.50;99.90;;;;;;5052597;28;20057;-82
2022/11/17 06:00:17;;;;;;;15.82;11.13;;;6.50;99.90;;;;;;5034434;28;20144;-79
2022/11/17 06:02:49;;;;;;;13.43;9.63;;;6.50;99.90;;;;;;5051998;28;20564;-81
2022/11/17 06:05:15;;;;;;;12.88;9.02;;;6.50;99.90;;;;;;5052224;28;20080;-80
2022/11/17 06:07:42;;;;;;;14.90;10.43;;;6.50;99.90;;;;;;5034414;28;20060;-83
2022/11/17 06:10:08;;;;;;;11.90;8.88;;;6.40;99.90;;;;;;5051829;28;20119;-81
2022/11/17 06:12:34;;;;;;;13.07;8.82;;;6.50;99.90;;;;;;5033575;28;20053;-81
2022/11/17 06:15:00;;;;;;;13.15;9.23;;;6.40;99.90;;;;;;5052172;28;20056;-79
2022/11/17 06:17:32;;;;;;;14.93;9.30;;;6.40;99.90;;;;;;5052521;28;20053;-81
2022/11/17 06:20:08;;;;;;;12.90;9.25;;;6.40;99.90;;;;;;5033952;28;20045;-79
2022/11/17 06:22:35;;;;;;;12.60;8.45;;;6.40;99.90;;;;;;5033846;28;20106;-81
2022/11/17 06:25:03;;;;;;;12.60;9.02;;;6.40;99.90;;;;;;5033656;28;20131;-83
2022/11/17 06:27:31;;;;;;;12.05;8.27;;;6.40;99.90;;;;;;5051444;28;20492;-82
2022/11/17 06:30:00;;;;;;;14.18;8.35;;;6.50;99.90;;;;;;5033810;28;20051;-79
2022/11/17 06:32:27;;;;;;;11.20;7.60;;;6.40;99.90;;;;;;5033398;28;20481;-78
2022/11/17 06:34:53;;;;;;;10.98;7.90;;;6.40;99.90;;;;;;5051552;28;20127;-80
2022/11/17 06:37:19;;;;;;;12.95;8.20;;;6.40;99.90;;;;;;5033462;28;20416;-80
2022/11/17 06:39:45;;;;;;;10.85;7.70;;;6.40;99.90;;;;;;5051454;28;20052;-81
2022/11/17 06:42:11;;;;;;;11.07;7.53;;;6.40;99.90;;;;;;5051501;28;20048;-80
2022/11/17 06:44:37;;;;;;;9.77;7.05;;;6.40;99.90;;;;;;5051197;28;20041;-81
2022/11/17 06:47:03;;;;;;;9.50;6.78;;;6.50;99.90;;;;;;5051546;28;20045;-80
2022/11/17 06:49:29;;;;;;;10.52;7.50;;;6.40;99.90;;;;;;5052260;28;20107;-83
2022/11/17 06:51:55;;;;;;;10.38;7.15;;;6.50;99.90;;;;;;5033902;28;20531;-83
2022/11/17 06:54:20;;;;;;;11.50;6.53;;;6.50;99.90;;;;;;5051818;28;20128;-84
2022/11/17 06:56:48;;;;;;;12.38;7.55;;;6.50;99.90;;;;;;5051063;28;20394;-81
2022/11/17 06:59:14;;;;;;;12.30;7.53;;;6.50;99.90;;;;;;5033005;28;20053;-79
2022/11/17 07:01:41;;;;;;;12.65;7.38;;;6.50;99.90;;;;;;5051356;28;20815;-79
2022/11/17 07:04:07;;;;;;;11.65;7.35;;;6.50;99.90;;;;;;5033539;28;20235;-79
2022/11/17 07:06:36;;;;;;;10.10;6.72;;;6.50;99.90;;;;;;5032672;28;20059;-79
2022/11/17 07:09:04;;;;;;;11.95;7.55;;;6.50;99.90;;;;;;5051021;28;20103;-82
2022/11/17 07:11:30;;;;;;;10.43;7.07;;;6.50;99.90;;;;;;5032949;28;20500;-79
2022/11/17 07:13:58;;;;;;;10.73;7.13;;;6.50;99.90;;;;;;5016387;28;20571;-79
2022/11/17 07:16:24;;;;;;;12.82;7.60;;;6.50;99.90;;;;;;5032950;28;20049;-79
2022/11/17 07:18:51;;;;;;;9.48;6.13;;;6.50;99.90;;;;;;5050954;28;20373;-80
2022/11/17 07:21:18;;;;;;;9.07;6.85;;;6.50;99.90;;;;;;5050134;28;20079;-80
2022/11/17 07:23:44;;;;;;;9.93;6.72;;;6.40;99.90;;;;;;5033196;28;20049;-81
2022/11/17 07:26:10;;;;;;;11.52;6.85;;;6.50;99.90;;;;;;5032967;28;20064;-84
2022/11/17 07:28:36;;;;;;;9.73;6.15;;;6.50;99.90;;;;;;5032496;28;20080;-84
2022/11/17 07:31:07;;;;;;;11.80;7.00;;;6.50;99.90;;;;;;5032237;28;20118;-82
2022/11/17 07:33:33;;;;;;;10.10;6.25;;;6.50;99.90;;;;;;5032762;28;20504;-81
2022/11/17 07:36:05;;;;;;;12.02;7.13;;;6.50;99.90;;;;;;5050877;28;20071;-81
2022/11/17 07:38:32;;;;;;;11.63;5.80;;;6.40;99.90;;;;;;5051283;28;20524;-80
2022/11/17 07:40:59;;;;;;;10.55;6.68;;;6.40;99.90;;;;;;5050984;28;20048;-79
2022/11/17 07:43:25;;;;;;;8.93;5.75;;;6.50;99.90;;;;;;5033041;28;20048;-81
2022/11/17 07:45:51;;;;;;;9.70;5.85;;;6.40;99.90;;;;;;5051402;28;20072;-82
2022/11/17 07:48:17;;;;;;;9.07;5.65;;;6.40;99.90;;;;;;5050703;28;20501;-80
2022/11/17 07:50:43;;;;;;;9.35;6.03;;;6.50;99.90;;;;;;5050631;28;20052;-81
2022/11/17 07:53:09;;;;;;;9.35;5.75;;;6.50;99.90;;;;;;5032249;28;20088;-80
2022/11/17 07:55:35;;;;;;;10.23;5.88;;;6.40;99.90;;;;;;5051293;28;20142;-79
2022/11/17 07:58:01;;;;;;;9.75;5.40;;;6.50;99.90;;;;;;5050268;28;20501;-86
2022/11/17 08:00:29;;;;;;;9.02;5.68;;;6.40;99.90;;;;;;5051242;28;20044;-82
2022/11/17 08:03:00;;;;;;;9.00;5.50;;;6.40;99.90;;;;;;5054523;28;20428;-81
2022/11/17 08:05:29;;;;;;;9.05;5.50;;;6.50;99.90;;;;;;5036698;28;20057;-82
2022/11/17 08:07:57;;;;;;;8.43;5.50;;;6.50;99.90;;;;;;5054462;28;20102;-79
2022/11/17 08:10:25;;;;;;;9.60;4.82;;;6.50;99.90;;;;;;5054517;28;20051;-82
2022/11/17 08:12:54;;;;;;;9.15;5.95;;;6.40;99.90;;;;;;5019344;28;20057;-81
2022/11/17 08:15:23;;;;;;;9.02;5.43;;;6.40;99.90;;;;;;5035776;28;20084;-83
2022/11/17 08:17:54;;;;;;;8.82;4.65;;;6.40;99.90;;;;;;5053806;28;20143;-85
2022/11/17 08:20:21;;;;;;;7.80;4.70;;;6.40;99.90;;;;;;5053590;28;20515;-80
2022/11/17 08:22:49;;;;;;;7.90;4.82;;;6.40;99.90;;;;;;5055329;28;20056;-81
2022/11/17 08:25:15;;;;;;;7.25;4.55;;;6.40;99.90;;;;;;5054519;28;20057;-81
2022/11/17 08:27:41;;;;;;;9.50;4.88;;;6.40;99.90;;;;;;5053814;28;20056;-83
2022/11/17 08:30:08;;;;;;;7.10;4.15;;;6.40;99.90;;;;;;5053898;28;20061;-80
2022/11/17 08:32:34;;;;;;;8.43;4.60;;;6.40;99.90;;;;;;5054988;28;20079;-84
2022/11/17 08:35:03;;;;;;;8.18;4.70;;;6.40;99.90;;;;;;5037090;28;20055;-81
2022/11/17 08:37:29;;;;;;;8.48;4.10;;;6.40;99.90;;;;;;5053634;28;20056;-81
2022/11/17 08:39:55;;;;;;;6.38;3.72;;;6.40;99.90;;;;;;5054350;28;20091;-81
2022/11/17 08:42:21;;;;;;;6.82;3.65;;;6.40;99.90;;;;;;5053905;28;20053;-81
2022/11/17 08:44:47;;;;;;;7.32;4.68;;;6.40;99.90;;;;;;5036971;28;20098;-80
2022/11/17 08:47:13;;;;;;;7.22;4.03;;;6.50;99.90;;;;;;5035547;28;20048;-85
2022/11/17 08:49:38;;;;;;;9.05;4.38;;;6.50;99.90;;;;;;5035862;28;20059;-82
2022/11/17 08:52:04;;;;;;;7.30;4.57;;;6.40;99.90;;;;;;5055515;28;20053;-82
2022/11/17 08:54:31;;;;;;;10.80;4.90;;;6.40;99.90;;;;;;5037251;28;20045;-81
2022/11/17 08:56:59;;;;;;;6.50;4.10;;;6.40;99.90;;;;;;5053513;28;20049;-85
2022/11/17 08:59:25;;;;;;;9.70;5.15;;;6.40;99.90;;;;;;5037314;28;20060;-83
2022/11/17 09:01:51;;;;;;;8.63;4.80;;;6.40;99.90;;;;;;5053844;28;20416;-80
2022/11/17 09:04:18;;;;;;;8.98;5.18;;;6.40;99.90;;;;;;5036429;28;20053;-80
2022/11/17 09:06:44;;;;;;;8.30;4.60;;;6.40;99.90;;;;;;5038151;28;20045;-81
2022/11/17 09:09:10;;;;;;;7.50;4.50;;;6.40;99.90;;;;;;5040543;28;20067;-84
2022/11/17 09:11:36;;;;;;;9.20;4.97;;;6.50;99.90;;;;;;5055924;28;20055;-86
2022/11/17 09:14:02;;;;;;;8.60;4.90;;;6.50;99.90;;;;;;5056262;28;20146;-83
2022/11/17 09:16:28;;;;;;;8.13;4.72;;;6.50;99.90;;;;;;5036950;28;20060;-80
2022/11/17 09:18:56;;;;;;;7.45;4.72;;;6.50;99.90;;;;;;5056899;28;20061;-82
2022/11/17 09:21:22;;;;;;;8.85;5.18;;;6.50;99.90;;;;;;5054709;28;20049;-80
2022/11/17 09:23:48;;;;;;;9.00;5.40;;;6.50;99.90;;;;;;5037499;28;20057;-83
2022/11/17 09:26:15;;;;;;;9.50;5.15;;;6.50;99.90;;;;;;5039429;28;20041;-82
2022/11/17 09:28:42;;;;;;;9.95;5.75;;;6.50;99.90;;;;;;5058822;28;20045;-81
2022/11/17 09:31:14;;;;;;;9.43;5.53;;;6.50;99.90;;;;;;5056116;28;20061;-81
2022/11/17 09:33:40;;;;;;;7.68;4.80;;;6.50;99.90;;;;;;5056498;28;20053;-85
2022/11/17 09:36:06;;;;;;;9.35;5.47;;;6.50;99.90;;;;;;5056589;28;20079;-82
2022/11/17 09:38:32;;;;;;;10.02;5.60;;;6.50;99.90;;;;;;5055689;28;20098;-81
2022/11/17 09:40:59;;;;;;;9.32;5.57;;;6.50;99.90;;;;;;5054053;28;20119;-83
2022/11/17 09:43:32;;;;;;;9.63;5.70;;;6.50;99.90;;;;;;5053354;28;20049;-79
2022/11/17 09:46:19;;;;;;;9.05;5.13;;;6.50;99.90;;;;;;5054102;28;20579;-81
2022/11/17 09:49:13;;;;;;;7.85;5.28;;;6.50;99.90;;;;;;5053750;28;20068;-83
2022/11/17 09:51:44;;;;;;;8.53;4.67;;;6.50;99.90;;;;;;5027902;28;20512;-82
2022/11/17 09:54:58;;;;;;;7.60;4.97;;;6.50;99.90;;;;;;5035257;28;20055;-86
2022/11/17 09:57:27;;;;;;;9.50;5.60;;;6.50;99.90;;;;;;5038284;28;20861;-81
2022/11/17 10:00:07;;;;;;;9.57;5.97;;;6.50;99.90;;;;;;5055227;28;20045;-80
2022/11/17 10:02:33;;;;;;;7.80;4.70;;;6.60;99.90;;;;;;5054816;28;20417;-79
2022/11/17 10:04:59;;;;;;;8.20;5.00;;;6.60;99.90;;;;;;5053619;28;20843;-80
2022/11/17 10:07:26;;;;;;;7.82;5.07;;;6.60;99.90;;;;;;5053084;28;20091;-81
2022/11/17 10:09:53;;;;;;;8.23;4.63;;;6.60;99.90;;;;;;5034782;28;20451;-83
2022/11/17 10:12:24;;;;;;;8.10;5.10;;;6.60;99.90;;;;;;5053917;28;20161;-85
2022/11/17 10:14:51;;;;;;;8.80;5.13;;;6.60;99.90;;;;;;5054116;28;20060;-81
2022/11/17 10:17:17;;;;;;;7.95;5.20;;;6.60;99.90;;;;;;5036357;28;20492;-81
2022/11/17 10:19:44;;;;;;;8.75;5.65;;;6.60;99.90;;;;;;5054962;28;20127;-85
2022/11/17 10:22:39;;;;;;;12.95;6.32;;;6.60;99.90;;;;;;5035817;28;20489;-79
2022/11/17 10:25:34;;;;;;;8.90;5.72;;;6.60;99.90;;;;;;5023605;28;20056;-81
2022/11/17 10:28:00;;;;;;;10.35;6.20;;;6.60;99.90;;;;;;5053340;28;20044;-84
2022/11/17 10:30:26;;;;;;;10.60;6.13;;;6.60;99.90;;;;;;5035143;28;20048;-86
2022/11/17 10:32:55;;;;;;;8.57;5.28;;;6.60;99.90;;;;;;5054522;28;20048;-81
2022/11/17 10:35:26;;;;;;;12.30;6.47;;;6.50;99.90;;;;;;5052486;28;20057;-84
2022/11/17 10:37:54;;;;;;;9.48;5.45;;;6.50;99.90;;;;;;5051458;28;20049;-80
2022/11/17 10:40:23;;;;;;;11.38;6.55;;;6.50;99.90;;;;;;5033813;28;20085;-82
2022/11/17 10:43:12;;;;;;;10.38;6.82;;;6.50;99.90;;;;;;5051483;28;20397;-80
2022/11/17 10:45:50;;;;;;;10.00;6.07;;;6.50;99.90;;;;;;5023426;28;20055;-82
2022/11/17 10:48:35;;;;;;;10.43;6.60;;;6.50;99.90;;;;;;5033387;28;20052;-81
2022/11/17 10:51:23;;;;;;;12.18;7.13;;;6.50;99.90;;;;;;5034272;28;20053;-82
2022/11/17 10:54:05;;;;;;;11.10;6.80;;;6.50;99.90;;;;;;5033417;28;20060;-85
2022/11/17 10:56:42;;;;;;;11.02;6.47;;;6.50;99.90;;;;;;5051122;28;20052;-86
2022/11/17 10:59:29;;;;;;;9.10;6.07;;;6.60;99.90;;;;;;5050928;28;20053;-84
2022/11/17 11:01:56;;;;;;;11.27;6.50;;;6.50;99.90;;;;;;5033079;28;20057;-80
2022/11/17 11:04:40;;;;;;;10.35;5.93;;;6.50;99.90;;;;;;5033268;28;20110;-82
2022/11/17 11:07:20;;;;;;;9.77;6.38;;;6.60;99.90;;;;;;5050899;28;20045;-81
2022/11/17 11:10:05;;;;;;;9.18;5.97;;;6.60;99.90;;;;;;5033212;28;20061;-80
2022/11/17 11:12:38;;;;;;;10.02;6.35;;;6.60;99.90;;;;;;5033326;28;20194;-82
2022/11/17 11:15:08;;;;;;;9.43;5.43;;;6.50;99.90;;;;;;5018765;28;20053;-78
2022/11/17 11:17:34;;;;;;;9.05;6.22;;;6.60;99.90;;;;;;5034582;28;20056;-83
2022/11/17 11:20:00;;;;;;;9.63;5.50;;;6.60;99.90;;;;;;5033036;28;20048;-80
2022/11/17 11:23:03;;;;;;;8.30;5.22;;;6.60;99.90;;;;;;5015861;28;20493;-80
2022/11/17 11:25:48;;;;;;;9.82;6.13;;;6.60;99.90;;;;;;5020899;28;20053;-82
2022/11/17 11:28:37;;;;;;;8.88;5.68;;;6.60;99.90;;;;;;5051973;28;20048;-81
2022/11/17 11:31:29;;;;;;;11.70;6.32;;;6.50;99.90;;;;;;5032844;28;20052;-85
2022/11/17 11:34:18;;;;;;;10.90;6.13;;;6.50;99.90;;;;;;4992645;28;20063;-86
2022/11/17 11:36:49;;;;;;;9.40;5.75;;;6.50;99.90;;;;;;4995911;28;20057;-81
2022/11/17 11:39:15;;;;;;;11.32;6.88;;;6.40;99.90;;;;;;5055246;28;20512;-80
2022/11/17 11:41:47;;;;;;;9.85;5.80;;;6.40;99.90;;;;;;5054963;28;20045;-82
2022/11/17 11:44:50;;;;;;;10.20;5.90;;;6.50;99.90;;;;;;5036727;28;20056;-82
2022/11/17 11:47:19;;;;;;;11.18;6.32;;;6.40;99.90;;;;;;5036628;28;20044;-79
2022/11/17 11:50:02;;;;;;;9.57;5.78;;;6.40;99.90;;;;;;5054419;28;20497;-83
2022/11/17 11:52:34;;;;;;;10.75;6.97;;;6.50;99.90;;;;;;5054401;28;20519;-85
2022/11/17 11:55:22;;;;;;;13.13;6.80;;;6.50;99.90;;;;;;5054871;28;20386;-80
2022/11/17 11:58:04;;;;;;;13.05;7.68;;;6.50;99.90;;;;;;5036374;28;20187;-86
2022/11/17 12:00:32;;;;;;;11.15;7.15;;;6.50;99.90;;;;;;5054339;28;20045;-84
2022/11/17 12:03:01;;;;;;;12.10;7.60;;;6.50;99.90;;;;;;5054290;28;20064;-81
2022/11/17 12:05:36;;;;;;;11.70;7.68;;;6.50;99.90;;;;;;5036464;28;20492;-79
2022/11/17 12:08:26;;;;;;;13.00;7.88;;;6.50;99.90;;;;;;5036067;28;20069;-81
2022/11/17 12:11:59;;;;;;;13.98;7.90;;;6.60;99.90;;;;;;5036088;28;20056;-84
2022/11/17 12:13:52;;;;;;;12.38;8.02;;;6.70;99.90;;;;;;5054629;28;20130;-80
2022/11/17 12:16:30;;;;;;;13.40;8.77;;;6.70;99.90;;;;;;5054226;28;20045;-80
2022/11/17 12:18:57;;;;;;;11.60;7.90;;;6.70;99.90;;;;;;5020807;28;20061;-80
2022/11/17 12:21:27;;;;;;;14.85;9.23;;;6.80;99.90;;;;;;5054054;28;20067;-83
2022/11/17 12:23:53;;;;;;;15.35;9.18;;;6.80;99.90;;;;;;5035461;28;20049;-81
2022/11/17 12:26:33;;;;;;;11.98;8.65;;;6.80;99.90;;;;;;5053676;28;20194;-85
2022/11/17 12:29:18;;;;;;;11.18;7.47;;;6.80;99.90;;;;;;5053866;28;20061;-80
2022/11/17 12:31:45;;;;;;;12.93;8.37;;;6.80;99.90;;;;;;5035194;28;20045;-81
2022/11/17 12:34:20;;;;;;;13.13;8.35;;;6.90;99.90;;;;;;5053666;28;20578;-81
2022/11/17 12:37:13;;;;;;;12.65;8.63;;;6.90;99.90;;;;;;5054090;28;20106;-82
2022/11/17 12:40:07;;;;;;;10.95;7.38;;;6.90;99.90;;;;;;5035868;28;20053;-81
2022/11/17 12:42:35;;;;;;;12.40;8.10;;;6.80;99.90;;;;;;5050609;28;20057;-83
2022/11/17 12:45:05;;;;;;;11.20;7.72;;;6.90;99.90;;;;;;5036137;28;20044;-80
2022/11/17 12:47:33;;;;;;;13.07;8.32;;;6.80;99.90;;;;;;5035284;28;20037;-79
2022/11/17 12:50:25;;;;;;;13.18;8.27;;;6.80;99.90;;;;;;5035423;28;20064;-85
2022/11/17 12:53:25;;;;;;;11.25;7.63;;;6.80;99.90;;;;;;5052970;28;20056;-81
2022/11/17 12:56:34;;;;;;;11.00;7.45;;;6.90;99.90;;;;;;5035456;28;20052;-82
2022/11/17 12:59:37;;;;;;;13.13;8.32;;;6.80;99.90;;;;;;5036503;28;20091;-82
2022/11/17 13:02:13;;;;;;;11.77;8.00;;;6.90;99.90;;;;;;5035532;28;20548;-84
2022/11/17 13:04:54;;;;;;;13.70;7.55;;;6.90;99.90;;;;;;5035226;28;20059;-81
2022/11/17 13:07:22;;;;;;;10.50;7.13;;;6.90;99.90;;;;;;5035641;28;20060;-80
2022/11/17 13:09:56;;;;;;;11.30;7.80;;;6.90;99.90;;;;;;5035582;28;20053;-84
2022/11/17 13:12:24;;;;;;;12.95;7.82;;;6.90;99.90;;;;;;5034966;28;20052;-83
2022/11/17 13:14:55;;;;;;;13.93;8.93;;;6.80;99.90;;;;;;5053415;28;20137;-80
2022/11/17 13:17:42;;;;;;;12.02;6.60;;;6.80;99.90;;;;;;5035252;28;20053;-80
2022/11/17 13:20:27;;;;;;;10.45;7.15;;;6.80;99.90;;;;;;5053367;28;20057;-80
2022/11/17 13:23:12;;;;;;;12.98;7.57;;;6.80;99.90;;;;;;5052594;28;20063;-82
2022/11/17 13:25:38;;;;;;;10.05;7.25;;;6.80;99.90;;;;;;5053066;28;20052;-78
2022/11/17 13:28:04;;;;;;;12.20;7.78;;;6.90;99.90;;;;;;5034846;28;20125;-82
2022/11/17 13:30:31;;;;;;;11.60;7.72;;;7.00;99.90;;;;;;5034957;28;20045;-78
2022/11/17 13:33:01;;;;;;;12.35;8.13;;;7.00;99.90;;;;;;5053051;28;20135;-81
2022/11/17 13:35:35;;;;;;;11.60;7.70;;;7.00;99.90;;;;;;5052853;28;20044;-80
2022/11/17 13:38:03;;;;;;;11.25;7.88;;;7.00;99.90;;;;;;5052684;28;20106;-80
2022/11/17 13:40:32;;;;;;;10.77;7.65;;;7.00;99.90;;;;;;5034623;28;20049;-82